Time;durP1;ratioP1;P1;durP2;ratioP2;P2;SDS_P1;SDS_P2;PMS_P1;PMS_P2;Temp;Humidity;BMP_temperature;BMP_pressure;BME280_temperature;BME280_humidity;BME280_pressure;Samples;Min_cycle;Max_cycle;Signal;HPM_P1;HPM_P2
2023/11/22 00:00:38;;;;;;;;;;;;;;;;;;5093510;28;19908;-74
2023/11/22 00:03:04;;;;;;;;;;;;;;;;;;5093598;28;19908;-72
2023/11/22 00:05:30;;;;;;;;;;;;;;;;;;5093121;28;19912;-72
2023/11/22 00:07:56;;;;;;;;;;;;;;;;;;5093330;28;19920;-72
2023/11/22 00:10:23;;;;;;;;;;;;;;;;;;5092201;28;19923;-74
2023/11/22 00:12:49;;;;;;;;;;;;;;;;;;5092947;28;20364;-73
2023/11/22 00:15:18;;;;;;;;;;;;;;;;;;5093312;28;20018;-73
2023/11/22 00:17:44;;;;;;;;;;;;;;;;;;5092002;28;19912;-73
2023/11/22 00:20:09;;;;;;;;;;;;;;;;;;5093372;28;20261;-73
2023/11/22 00:22:35;;;;;;;;;;;;;;;;;;5093874;28;20345;-73
2023/11/22 00:25:01;;;;;;;;;;;;;;;;;;5092860;28;20416;-74
2023/11/22 00:27:27;;;;;;;;;;;;;;;;;;5091983;28;19919;-74
2023/11/22 00:29:53;;;;;;;;;;;;;;;;;;5093172;28;19923;-74
2023/11/22 00:32:19;;;;;;;;;;;;;;;;;;5093044;28;19908;-74
2023/11/22 00:34:45;;;;;;;;;;;;;;;;;;5093391;28;19915;-74
2023/11/22 00:37:11;;;;;;;;;;;;;;;;;;5095455;28;19915;-74
2023/11/22 00:39:37;;;;;;;;;;;;;;;;;;5096180;28;19913;-74
2023/11/22 00:42:03;;;;;;;;;;;;;;;;;;5096580;28;20279;-74
2023/11/22 00:44:29;;;;;;;;;;;;;;;;;;5095228;28;19912;-73
2023/11/22 00:46:57;;;;;;;;;;;;;;;;;;5096130;28;19908;-73
2023/11/22 00:49:23;;;;;;;;;;;;;;;;;;5096406;28;19912;-73
2023/11/22 00:51:49;;;;;;;;;;;;;;;;;;5096420;28;20000;-73
2023/11/22 00:54:15;;;;;;;;;;;;;;;;;;5095826;28;19981;-73
2023/11/22 00:56:41;;;;;;;;;;;;;;;;;;5096347;28;19908;-73
2023/11/22 00:59:07;;;;;;;;;;;;;;;;;;5096198;28;19908;-73
2023/11/22 01:01:32;;;;;;;;;;;;;;;;;;5095846;28;19908;-73
2023/11/22 01:03:59;;;;;;;;;;;;;;;;;;5096104;28;20352;-73
2023/11/22 01:06:24;;;;;;;;;;;;;;;;;;5096167;28;19966;-74
2023/11/22 01:08:50;;;;;;;;;;;;;;;;;;5094047;28;19963;-73
2023/11/22 01:11:16;;;;;;;;;;;;;;;;;;5096008;28;19908;-73
2023/11/22 01:13:43;;;;;;;;;;;;;;;;;;5095959;28;19908;-73
2023/11/22 01:16:09;;;;;;;;;;;;;;;;;;5095441;28;19958;-73
2023/11/22 01:18:35;;;;;;;;;;;;;;;;;;5094638;28;20321;-73
2023/11/22 01:21:01;;;;;;;;;;;;;;;;;;5094195;28;20360;-73
2023/11/22 01:23:27;;;;;;;;;;;;;;;;;;5094509;28;19916;-73
2023/11/22 01:25:53;;;;;;;;;;;;;;;;;;5095758;28;19915;-73
2023/11/22 01:28:19;;;;;;;;;;;;;;;;;;5095211;28;20272;-73
2023/11/22 01:30:54;;;;;;;;;;;;;;;;;;5095615;28;20364;-74
2023/11/22 01:33:20;;;;;;;;;;;;;;;;;;5095611;28;19908;-73
2023/11/22 01:35:46;;;;;;;;;;;;;;;;;;5095130;28;20376;-73
2023/11/22 01:38:12;;;;;;;;;;;;;;;;;;5095416;28;20306;-73
2023/11/22 01:40:38;;;;;;;;;;;;;;;;;;5095383;28;20380;-73
2023/11/22 01:43:05;;;;;;;;;;;;;;;;;;5095018;28;19909;-73
2023/11/22 01:45:31;;;;;;;;;;;;;;;;;;5095219;28;19966;-73
2023/11/22 01:47:57;;;;;;;;;;;;;;;;;;5095258;28;20375;-73
2023/11/22 01:53:07;;;;;;;;;;;;;;;;;;5095088;28;20390;-73
2023/11/22 01:55:33;;;;;;;;;;;;;;;;;;5093863;28;19959;-73
2023/11/22 01:57:59;;;;;;;;;;;;;;;;;;5094578;28;19954;-73
2023/11/22 02:00:25;;;;;;;;;;;;;;;;;;5095085;28;19915;-73
2023/11/22 02:02:51;;;;;;;;;;;;;;;;;;5095021;28;19946;-73
2023/11/22 02:05:17;;;;;;;;;;;;;;;;;;5094920;28;20044;-73
2023/11/22 02:07:44;;;;;;;;;;;;;;;;;;5094823;28;19912;-73
2023/11/22 02:10:09;;;;;;;;;;;;;;;;;;5094451;28;19917;-73
2023/11/22 02:12:35;;;;;;;;;;;;;;;;;;5094869;28;19999;-73
2023/11/22 02:15:02;;;;;;;;;;;;;;;;;;5094710;28;19962;-73
2023/11/22 02:17:28;;;;;;;;;;;;;;;;;;5076154;28;20383;-73
2023/11/22 02:19:54;;;;;;;;;;;;;;;;;;5094722;28;19909;-73
2023/11/22 02:22:21;;;;;;;;;;;;;;;;;;5094865;28;19916;-73
2023/11/22 02:24:47;;;;;;;;;;;;;;;;;;5094347;28;19965;-73
2023/11/22 02:27:13;;;;;;;;;;;;;;;;;;5094754;28;19908;-73
2023/11/22 02:29:40;;;;;;;;;;;;;;;;;;5094385;28;19939;-73
2023/11/22 02:32:06;;;;;;;;;;;;;;;;;;5093932;28;19915;-73
2023/11/22 02:34:32;;;;;;;;;;;;;;;;;;5094309;28;19908;-73
2023/11/22 02:36:58;;;;;;;;;;;;;;;;;;5094345;28;19912;-73
2023/11/22 02:39:24;;;;;;;;;;;;;;;;;;5094193;28;19955;-73
2023/11/22 02:41:50;;;;;;;;;;;;;;;;;;5094322;28;19908;-74
2023/11/22 02:44:17;;;;;;;;;;;;;;;;;;5094322;28;19908;-73
2023/11/22 02:46:43;;;;;;;;;;;;;;;;;;5093955;28;20391;-73
2023/11/22 02:49:09;;;;;;;;;;;;;;;;;;5094391;28;19916;-73
2023/11/22 02:51:35;;;;;;;;;;;;;;;;;;5094302;28;19908;-73
2023/11/22 02:54:01;;;;;;;;;;;;;;;;;;5075702;28;19908;-75
2023/11/22 02:56:27;;;;;;;;;;;;;;;;;;5075578;28;19912;-74
2023/11/22 02:58:53;;;;;;;;;;;;;;;;;;5076054;28;20360;-74
2023/11/22 03:01:19;;;;;;;;;;;;;;;;;;5093744;28;19962;-74
2023/11/22 03:03:45;;;;;;;;;;;;;;;;;;5094153;28;19912;-73
2023/11/22 03:06:11;;;;;;;;;;;;;;;;;;5094028;28;19908;-73
2023/11/22 03:08:37;;;;;;;;;;;;;;;;;;5093345;28;19931;-73
2023/11/22 03:11:03;;;;;;;;;;;;;;;;;;5094020;28;19924;-73
2023/11/22 03:13:29;;;;;;;;;;;;;;;;;;5093485;28;19954;-73
2023/11/22 03:15:55;;;;;;;;;;;;;;;;;;5093922;28;20006;-73
2023/11/22 03:18:21;;;;;;;;;;;;;;;;;;5094220;28;19908;-73
2023/11/22 03:20:47;;;;;;;;;;;;;;;;;;5075455;28;19908;-73
2023/11/22 03:23:16;;;;;;;;;;;;;;;;;;5093967;28;19915;-74
2023/11/22 03:25:42;;;;;;;;;;;;;;;;;;5075740;28;19908;-74
2023/11/22 03:28:08;;;;;;;;;;;;;;;;;;5093462;28;19908;-74
2023/11/22 03:30:34;;;;;;;;;;;;;;;;;;5093831;28;19916;-74
2023/11/22 03:33:00;;;;;;;;;;;;;;;;;;5075701;28;19908;-74
2023/11/22 03:35:26;;;;;;;;;;;;;;;;;;5093419;28;19909;-74
2023/11/22 03:37:52;;;;;;;;;;;;;;;;;;5093734;28;19909;-74
2023/11/22 03:40:18;;;;;;;;;;;;;;;;;;5093761;28;19979;-75
2023/11/22 03:42:44;;;;;;;;;;;;;;;;;;5093441;28;19993;-75
2023/11/22 03:45:11;;;;;;;;;;;;;;;;;;5093802;28;20423;-74
2023/11/22 03:47:37;;;;;;;;;;;;;;;;;;5075570;28;19908;-74
2023/11/22 03:50:05;;;;;;;;;;;;;;;;;;5093186;28;20350;-73
2023/11/22 03:52:31;;;;;;;;;;;;;;;;;;5093785;28;19908;-73
2023/11/22 03:54:58;;;;;;;;;;;;;;;;;;5093847;28;19916;-73
2023/11/22 03:57:24;;;;;;;;;;;;;;;;;;5093179;28;20273;-74
2023/11/22 03:59:49;;;;;;;;;;;;;;;;;;5093629;28;19915;-75
2023/11/22 04:02:15;;;;;;;;;;;;;;;;;;5093489;28;19914;-74
2023/11/22 04:04:41;;;;;;;;;;;;;;;;;;5093079;28;20388;-72
2023/11/22 04:07:07;;;;;;;;;;;;;;;;;;5093739;28;19912;-75
2023/11/22 04:09:33;;;;;;;;;;;;;;;;;;5097009;28;19920;-75
2023/11/22 04:11:59;;;;;;;;;;;;;;;;;;5096945;28;19977;-75
2023/11/22 04:14:27;;;;;;;;;;;;;;;;;;5079150;28;19908;-74
2023/11/22 04:16:53;;;;;;;;;;;;;;;;;;5096772;28;19912;-73
2023/11/22 04:19:18;;;;;;;;;;;;;;;;;;5097122;28;20318;-72
2023/11/22 04:21:44;;;;;;;;;;;;;;;;;;5097135;28;20382;-73
2023/11/22 04:24:12;;;;;;;;;;;;;;;;;;5096619;28;20403;-72
2023/11/22 04:26:38;;;;;;;;;;;;;;;;;;5096930;28;20433;-72
2023/11/22 04:29:04;;;;;;;;;;;;;;;;;;5096821;28;19916;-72
2023/11/22 04:31:30;;;;;;;;;;;;;;;;;;5096509;28;19908;-73
2023/11/22 04:33:57;;;;;;;;;;;;;;;;;;5096876;28;19946;-73
2023/11/22 04:36:23;;;;;;;;;;;;;;;;;;5096801;28;19915;-74
2023/11/22 04:38:49;;;;;;;;;;;;;;;;;;5096352;28;19912;-73
2023/11/22 04:41:15;;;;;;;;;;;;;;;;;;5096845;28;20329;-73
2023/11/22 04:43:41;;;;;;;;;;;;;;;;;;5096913;28;19912;-73
2023/11/22 04:46:08;;;;;;;;;;;;;;;;;;5096205;28;19912;-73
2023/11/22 04:48:34;;;;;;;;;;;;;;;;;;5097132;28;19908;-73
2023/11/22 04:51:00;;;;;;;;;;;;;;;;;;5096514;28;19916;-73
2023/11/22 04:53:26;;;;;;;;;;;;;;;;;;5096116;28;19994;-72
2023/11/22 04:55:52;;;;;;;;;;;;;;;;;;5096414;28;19991;-73
2023/11/22 04:58:18;;;;;;;;;;;;;;;;;;5096407;28;19947;-73
2023/11/22 05:00:45;;;;;;;;;;;;;;;;;;5095968;28;19908;-73
2023/11/22 05:03:11;;;;;;;;;;;;;;;;;;5096332;28;20002;-73
2023/11/22 05:05:37;;;;;;;;;;;;;;;;;;5096252;28;19945;-73
2023/11/22 05:08:03;;;;;;;;;;;;;;;;;;5095647;28;19920;-72
2023/11/22 05:10:29;;;;;;;;;;;;;;;;;;5096089;28;20025;-73
2023/11/22 05:12:59;;;;;;;;;;;;;;;;;;5096170;28;20006;-73
2023/11/22 05:15:25;;;;;;;;;;;;;;;;;;5096323;28;19971;-73
2023/11/22 05:17:51;;;;;;;;;;;;;;;;;;5096138;28;20340;-73
2023/11/22 05:20:17;;;;;;;;;;;;;;;;;;5076936;28;20352;-73
2023/11/22 05:22:43;;;;;;;;;;;;;;;;;;5095871;28;19915;-74
2023/11/22 05:25:09;;;;;;;;;;;;;;;;;;5095767;28;19908;-73
2023/11/22 05:27:34;;;;;;;;;;;;;;;;;;5095544;28;19914;-73
2023/11/22 05:30:00;;;;;;;;;;;;;;;;;;5095629;28;20019;-73
2023/11/22 05:32:26;;;;;;;;;;;;;;;;;;5095064;28;19908;-72
2023/11/22 05:34:52;;;;;;;;;;;;;;;;;;5093978;28;19914;-72
2023/11/22 05:37:18;;;;;;;;;;;;;;;;;;5093555;28;19958;-73
2023/11/22 05:39:45;;;;;;;;;;;;;;;;;;5093562;28;19909;-73
2023/11/22 05:42:11;;;;;;;;;;;;;;;;;;5093056;28;19995;-73
2023/11/22 05:44:37;;;;;;;;;;;;;;;;;;5093343;28;19912;-72
2023/11/22 05:47:03;;;;;;;;;;;;;;;;;;5093609;28;19908;-73
2023/11/22 05:49:29;;;;;;;;;;;;;;;;;;5092797;28;19923;-73
2023/11/22 05:51:55;;;;;;;;;;;;;;;;;;5093348;28;19969;-72
2023/11/22 05:54:21;;;;;;;;;;;;;;;;;;5093236;28;19909;-72
2023/11/22 05:56:47;;;;;;;;;;;;;;;;;;5092816;28;19908;-73
2023/11/22 05:59:13;;;;;;;;;;;;;;;;;;5093144;28;20453;-72
2023/11/22 06:01:39;;;;;;;;;;;;;;;;;;5093114;28;20014;-73
2023/11/22 06:04:05;;;;;;;;;;;;;;;;;;5094892;28;19912;-73
2023/11/22 06:06:31;;;;;;;;;;;;;;;;;;5095042;28;19912;-72
2023/11/22 06:08:57;;;;;;;;;;;;;;;;;;5094797;28;19927;-71
2023/11/22 06:11:25;;;;;;;;;;;;;;;;;;5094614;28;19954;-72
2023/11/22 06:13:51;;;;;;;;;;;;;;;;;;5076666;28;19908;-72
2023/11/22 06:16:17;;;;;;;;;;;;;;;;;;5094443;28;19947;-73
2023/11/22 06:18:44;;;;;;;;;;;;;;;;;;5076672;28;20395;-75
2023/11/22 06:21:10;;;;;;;;;;;;;;;;;;5090193;28;19913;-73
2023/11/22 06:23:36;;;;;;;;;;;;;;;;;;5069722;28;20678;-73
2023/11/22 06:26:01;;;;;;;;;;;;;;;;;;5073509;28;19913;-73
2023/11/22 06:28:28;;;;;;;;;;;;;;;;;;5072512;28;19921;-72
2023/11/22 06:30:54;;;;;;;;;;;;;;;;;;5075494;28;19921;-72
2023/11/22 06:33:20;;;;;;;;;;;;;;;;;;5052703;28;19913;-69
2023/11/22 06:35:47;;;;;;;;;;;;;;;;;;5046721;28;19961;-69
2023/11/22 06:38:13;;;;;;;;;;;;;;;;;;5067008;28;20463;-70
2023/11/22 06:40:39;;;;;;;;;;;;;;;;;;5050902;28;19987;-73
2023/11/22 06:43:05;;;;;;;;;;;;;;;;;;5068975;28;19912;-72
2023/11/22 06:45:34;;;;;;;;;;;;;;;;;;5069277;28;19935;-70
2023/11/22 06:48:00;;;;;;;;;;;;;;;;;;5058813;28;19916;-69
2023/11/22 06:50:26;;;;;;;;;;;;;;;;;;5045853;28;19925;-69
2023/11/22 06:52:52;;;;;;;;;;;;;;;;;;5067685;28;19954;-69
2023/11/22 06:55:18;;;;;;;;;;;;;;;;;;5067662;28;19912;-69
2023/11/22 06:57:44;;;;;;;;;;;;;;;;;;5049749;28;19912;-71
2023/11/22 07:00:10;;;;;;;;;;;;;;;;;;5068813;28;19915;-70
2023/11/22 07:02:36;;;;;;;;;;;;;;;;;;5063631;28;19908;-71
2023/11/22 07:05:11;;;;;;;;;;;;;;;;;;5073907;28;20360;-68
2023/11/22 07:07:37;;;;;;;;;;;;;;;;;;5092931;28;19913;-70
2023/11/22 07:10:05;;;;;;;;;;;;;;;;;;5092503;28;20632;-69
2023/11/22 07:12:31;;;;;;;;;;;;;;;;;;5072264;28;19920;-69
2023/11/22 07:14:57;;;;;;;;;;;;;;;;;;5076836;28;20021;-69
2023/11/22 07:17:23;;;;;;;;;;;;;;;;;;5070940;28;19924;-69
2023/11/22 07:19:49;;;;;;;;;;;;;;;;;;5051842;28;20362;-69
2023/11/22 07:22:19;;;;;;;;;;;;;;;;;;5069073;28;19939;-68
2023/11/22 07:24:45;;;;;;;;;;;;;;;;;;5051760;28;20206;-68
2023/11/22 07:27:12;;;;;;;;;;;;;;;;;;5052009;28;20007;-70
2023/11/22 07:29:38;;;;;;;;;;;;;;;;;;5062745;28;20498;-70
2023/11/22 07:32:04;;;;;;;;;;;;;;;;;;5046919;28;19920;-71
2023/11/22 07:34:30;;;;;;;;;;;;;;;;;;5066146;28;19921;-71
2023/11/22 07:36:56;;;;;;;;;;;;;;;;;;5069467;28;19939;-72
2023/11/22 07:39:27;;;;;;;;;;;;;;;;;;5070067;28;19913;-71
2023/11/22 07:41:53;;;;;;;;;;;;;;;;;;5064032;28;19924;-71
2023/11/22 07:44:19;;;;;;;;;;;;;;;;;;5053446;28;19912;-70
2023/11/22 07:46:45;;;;;;;;;;;;;;;;;;5073154;28;19909;-69
2023/11/22 07:49:11;;;;;;;;;;;;;;;;;;5071881;28;20289;-68
2023/11/22 07:51:37;;;;;;;;;;;;;;;;;;5073633;28;19916;-69
2023/11/22 07:54:03;;;;;;;;;;;;;;;;;;5074386;28;19909;-70
2023/11/22 07:56:32;;;;;;;;;;;;;;;;;;5073362;28;19912;-70
2023/11/22 07:58:58;;;;;;;;;;;;;;;;;;5068444;28;19934;-69
2023/11/22 08:01:25;;;;;;;;;;;;;;;;;;5055947;28;20349;-70
2023/11/22 08:03:51;;;;;;;;;;;;;;;;;;5060048;28;19915;-70
2023/11/22 08:06:17;;;;;;;;;;;;;;;;;;5064731;28;19913;-70
2023/11/22 08:08:45;;;;;;;;;;;;;;;;;;5083302;28;19927;-69
2023/11/22 08:11:14;;;;;;;;;;;;;;;;;;5092974;28;19916;-70
2023/11/22 08:13:40;;;;;;;;;;;;;;;;;;5084830;28;19916;-69
2023/11/22 08:16:06;;;;;;;;;;;;;;;;;;5094798;28;19915;-69
2023/11/22 08:18:32;;;;;;;;;;;;;;;;;;5092632;28;19908;-69
2023/11/22 08:20:58;;;;;;;;;;;;;;;;;;5092012;28;19908;-69
2023/11/22 08:23:26;;;;;;;;;;;;;;;;;;5091447;28;19966;-70
2023/11/22 08:25:53;;;;;;;;;;;;;;;;;;5090931;28;19919;-74
2023/11/22 08:28:19;;;;;;;;;;;;;;;;;;5090827;28;19915;-69
2023/11/22 08:30:45;;;;;;;;;;;;;;;;;;5085683;28;19966;-68
2023/11/22 08:33:11;;;;;;;;;;;;;;;;;;5090727;28;19988;-69
2023/11/22 08:35:36;;;;;;;;;;;;;;;;;;5089174;28;19967;-68
2023/11/22 08:38:03;;;;;;;;;;;;;;;;;;5090950;28;20395;-68
2023/11/22 08:40:29;;;;;;;;;;;;;;;;;;5085692;28;19978;-69
2023/11/22 08:42:55;;;;;;;;;;;;;;;;;;5092351;28;19915;-71
2023/11/22 08:45:20;;;;;;;;;;;;;;;;;;5101555;28;19966;-67
2023/11/22 08:47:46;;;;;;;;;;;;;;;;;;5113064;28;20326;-70
2023/11/22 08:50:12;;;;;;;;;;;;;;;;;;5114120;28;19919;-67
2023/11/22 08:52:39;;;;;;;;;;;;;;;;;;5106388;28;19964;-68
2023/11/22 08:55:06;;;;;;;;;;;;;;;;;;5109703;28;19917;-67
2023/11/22 08:57:32;;;;;;;;;;;;;;;;;;5110644;28;19908;-68
2023/11/22 09:00:01;;;;;;;;;;;;;;;;;;5078973;28;19923;-70
2023/11/22 09:02:28;;;;;;;;;;;;;;;;;;5082465;28;19912;-67
2023/11/22 09:04:54;;;;;;;;;;;;;;;;;;5083094;28;19916;-67
2023/11/22 09:07:22;;;;;;;;;;;;;;;;;;5092049;28;19999;-68
2023/11/22 09:09:48;;;;;;;;;;;;;;;;;;5092174;28;19924;-69
2023/11/22 09:12:14;;;;;;;;;;;;;;;;;;5082177;28;19912;-68
2023/11/22 09:14:41;;;;;;;;;;;;;;;;;;5069979;28;19920;-68
2023/11/22 09:17:07;;;;;;;;;;;;;;;;;;5035351;28;19916;-68
2023/11/22 09:19:33;;;;;;;;;;;;;;;;;;5052374;28;19909;-70
2023/11/22 09:21:59;;;;;;;;;;;;;;;;;;5052274;28;20000;-67
2023/11/22 09:24:26;;;;;;;;;;;;;;;;;;5072005;28;19951;-68
2023/11/22 09:26:52;;;;;;;;;;;;;;;;;;5072209;28;19954;-69
2023/11/22 09:29:18;;;;;;;;;;;;;;;;;;5072549;28;19917;-70
2023/11/22 09:31:47;;;;;;;;;;;;;;;;;;5071151;28;19913;-71
2023/11/22 09:34:13;;;;;;;;;;;;;;;;;;5073167;28;19944;-69
2023/11/22 09:36:39;;;;;;;;;;;;;;;;;;5072198;28;19967;-68
2023/11/22 09:39:08;;;;;;;;;;;;;;;;;;5074712;28;20414;-68
2023/11/22 09:41:34;;;;;;;;;;;;;;;;;;5078310;28;20360;-71
2023/11/22 09:44:00;;;;;;;;;;;;;;;;;;5074960;28;20674;-70
2023/11/22 09:46:26;;;;;;;;;;;;;;;;;;5075863;28;19908;-72
2023/11/22 09:48:55;;;;;;;;;;;;;;;;;;5093233;28;19919;-68
2023/11/22 09:51:23;;;;;;;;;;;;;;;;;;5074368;28;20348;-69
2023/11/22 09:53:49;;;;;;;;;;;;;;;;;;5068749;28;19958;-69
2023/11/22 09:56:15;;;;;;;;;;;;;;;;;;5068001;28;19963;-70
2023/11/22 09:58:44;;;;;;;;;;;;;;;;;;5063970;28;20018;-69
2023/11/22 10:01:11;;;;;;;;;;;;;;;;;;5066632;28;20388;-69
2023/11/22 10:03:37;;;;;;;;;;;;;;;;;;5068140;28;20606;-70
2023/11/22 10:06:04;;;;;;;;;;;;;;;;;;5068397;28;19996;-69
2023/11/22 10:08:31;;;;;;;;;;;;;;;;;;5077509;28;19928;-69
2023/11/22 10:10:57;;;;;;;;;;;;;;;;;;5090322;28;20372;-69
2023/11/22 10:13:23;;;;;;;;;;;;;;;;;;5089120;28;19912;-69
2023/11/22 10:15:49;;;;;;;;;;;;;;;;;;5092971;28;19944;-70
2023/11/22 10:18:15;;;;;;;;;;;;;;;;;;5093346;28;19915;-70
2023/11/22 10:20:41;;;;;;;;;;;;;;;;;;5093956;28;19919;-70
2023/11/22 10:23:08;;;;;;;;;;;;;;;;;;5092739;28;19912;-70
2023/11/22 10:25:34;;;;;;;;;;;;;;;;;;5093611;28;20433;-71
2023/11/22 10:28:01;;;;;;;;;;;;;;;;;;5092861;28;20311;-68
2023/11/22 10:30:28;;;;;;;;;;;;;;;;;;5081162;28;20328;-75
2023/11/22 10:32:55;;;;;;;;;;;;;;;;;;5076693;28;19924;-75
2023/11/22 10:35:22;;;;;;;;;;;;;;;;;;5082215;28;20322;-75
2023/11/22 10:37:48;;;;;;;;;;;;;;;;;;5091666;28;19912;-77
2023/11/22 10:40:15;;;;;;;;;;;;;;;;;;5093664;28;20007;-76
2023/11/22 10:42:45;;;;;;;;;;;;;;;;;;5091372;28;20280;-77
2023/11/22 10:45:11;;;;;;;;;;;;;;;;;;5091584;28;20028;-76
2023/11/22 10:47:38;;;;;;;;;;;;;;;;;;5091521;28;19912;-75
2023/11/22 10:50:04;;;;;;;;;;;;;;;;;;5091347;28;19928;-67
2023/11/22 10:52:30;;;;;;;;;;;;;;;;;;5090933;28;19985;-69
2023/11/22 10:54:56;;;;;;;;;;;;;;;;;;5090886;28;19912;-71
2023/11/22 10:57:22;;;;;;;;;;;;;;;;;;5092063;28;19918;-70
2023/11/22 10:59:48;;;;;;;;;;;;;;;;;;5091898;28;20026;-71
2023/11/22 11:02:14;;;;;;;;;;;;;;;;;;5091976;28;19912;-71
2023/11/22 11:04:40;;;;;;;;;;;;;;;;;;5090131;28;19908;-71
2023/11/22 11:07:06;;;;;;;;;;;;;;;;;;5089826;28;19999;-71
2023/11/22 11:09:32;;;;;;;;;;;;;;;;;;5091037;28;20015;-70
2023/11/22 11:11:58;;;;;;;;;;;;;;;;;;5071938;28;19917;-69
2023/11/22 11:14:24;;;;;;;;;;;;;;;;;;5068550;28;19913;-70
2023/11/22 11:16:54;;;;;;;;;;;;;;;;;;5063445;28;19958;-69
2023/11/22 11:19:25;;;;;;;;;;;;;;;;;;5065726;28;19935;-70
2023/11/22 11:21:51;;;;;;;;;;;;;;;;;;5089119;28;19912;-70
2023/11/22 11:24:18;;;;;;;;;;;;;;;;;;5091922;28;20339;-69
2023/11/22 11:26:44;;;;;;;;;;;;;;;;;;5076450;28;19966;-71
2023/11/22 11:29:10;;;;;;;;;;;;;;;;;;5070853;28;19916;-70
2023/11/22 11:31:36;;;;;;;;;;;;;;;;;;5086351;28;19920;-71
2023/11/22 11:34:03;;;;;;;;;;;;;;;;;;5089146;28;20457;-70
2023/11/22 11:36:31;;;;;;;;;;;;;;;;;;5090482;28;20019;-69
2023/11/22 11:38:57;;;;;;;;;;;;;;;;;;5091041;28;19912;-70
2023/11/22 11:41:23;;;;;;;;;;;;;;;;;;5090585;28;19957;-72
2023/11/22 11:43:49;;;;;;;;;;;;;;;;;;5089854;28;20326;-73
2023/11/22 11:46:15;;;;;;;;;;;;;;;;;;5089403;28;20431;-73
2023/11/22 11:48:41;;;;;;;;;;;;;;;;;;5072655;28;19908;-74
2023/11/22 11:51:07;;;;;;;;;;;;;;;;;;5081203;28;19924;-74
2023/11/22 11:53:33;;;;;;;;;;;;;;;;;;5072560;28;19919;-73
2023/11/22 11:55:59;;;;;;;;;;;;;;;;;;5089971;28;19920;-73
2023/11/22 11:58:26;;;;;;;;;;;;;;;;;;5059125;28;20312;-74
2023/11/22 12:00:52;;;;;;;;;;;;;;;;;;5034407;28;19913;-73
2023/11/22 12:03:21;;;;;;;;;;;;;;;;;;5062295;28;19920;-72
2023/11/22 12:05:47;;;;;;;;;;;;;;;;;;5068964;28;19912;-69
2023/11/22 12:08:15;;;;;;;;;;;;;;;;;;5075213;28;20045;-69
2023/11/22 12:10:41;;;;;;;;;;;;;;;;;;5091058;28;20360;-71
2023/11/22 12:13:08;;;;;;;;;;;;;;;;;;5085710;28;19908;-70
2023/11/22 12:15:34;;;;;;;;;;;;;;;;;;5085357;28;20360;-69
2023/11/22 12:18:00;;;;;;;;;;;;;;;;;;5087078;28;19931;-68
2023/11/22 12:20:31;;;;;;;;;;;;;;;;;;5088560;28;20331;-69
2023/11/22 12:22:57;;;;;;;;;;;;;;;;;;5089165;28;19974;-68
2023/11/22 12:25:25;;;;;;;;;;;;;;;;;;5089064;28;19959;-69
2023/11/22 12:27:51;;;;;;;;;;;;;;;;;;5091239;28;19960;-68
2023/11/22 12:30:18;;;;;;;;;;;;;;;;;;5095215;28;19931;-69
2023/11/22 12:32:44;;;;;;;;;;;;;;;;;;5095391;28;20364;-70
2023/11/22 12:35:11;;;;;;;;;;;;;;;;;;5095254;28;20312;-68
2023/11/22 12:37:37;;;;;;;;;;;;;;;;;;5095309;28;19927;-69
2023/11/22 12:40:03;;;;;;;;;;;;;;;;;;5095981;28;19909;-69
2023/11/22 12:42:31;;;;;;;;;;;;;;;;;;5096158;28;19999;-69
2023/11/22 12:44:58;;;;;;;;;;;;;;;;;;5095871;28;20019;-72
2023/11/22 12:47:25;;;;;;;;;;;;;;;;;;5096281;28;20296;-72
2023/11/22 12:49:51;;;;;;;;;;;;;;;;;;5095311;28;19956;-70
2023/11/22 12:52:17;;;;;;;;;;;;;;;;;;5092073;28;20360;-69
2023/11/22 12:54:47;;;;;;;;;;;;;;;;;;5093855;28;19916;-70
2023/11/22 12:57:13;;;;;;;;;;;;;;;;;;5091886;28;19958;-70
2023/11/22 12:59:40;;;;;;;;;;;;;;;;;;5094188;28;20370;-72
2023/11/22 13:02:06;;;;;;;;;;;;;;;;;;5093835;28;20222;-72
2023/11/22 13:04:33;;;;;;;;;;;;;;;;;;5093680;28;19919;-71
2023/11/22 13:06:59;;;;;;;;;;;;;;;;;;5094303;28;20005;-69
2023/11/22 13:09:25;;;;;;;;;;;;;;;;;;5094033;28;19924;-70
2023/11/22 13:11:51;;;;;;;;;;;;;;;;;;5095304;28;19908;-71
2023/11/22 13:14:18;;;;;;;;;;;;;;;;;;5095546;28;19916;-72
2023/11/22 13:16:45;;;;;;;;;;;;;;;;;;5094176;28;19908;-72
2023/11/22 13:19:11;;;;;;;;;;;;;;;;;;5095099;28;19908;-71
2023/11/22 13:21:37;;;;;;;;;;;;;;;;;;5094291;28;19914;-72
2023/11/22 13:24:04;;;;;;;;;;;;;;;;;;5094046;28;19912;-72
2023/11/22 13:26:30;;;;;;;;;;;;;;;;;;5094830;28;19916;-75
2023/11/22 13:28:58;;;;;;;;;;;;;;;;;;5094647;28;19915;-72
2023/11/22 13:31:24;;;;;;;;;;;;;;;;;;5094987;28;19939;-74
2023/11/22 13:33:50;;;;;;;;;;;;;;;;;;5094833;28;19908;-72
2023/11/22 13:36:17;;;;;;;;;;;;;;;;;;5093761;28;20001;-71
2023/11/22 13:38:43;;;;;;;;;;;;;;;;;;5095279;28;19977;-74
2023/11/22 13:41:09;;;;;;;;;;;;;;;;;;5094330;28;20006;-72
2023/11/22 13:43:35;;;;;;;;;;;;;;;;;;5093886;28;19908;-70
2023/11/22 13:46:01;;;;;;;;;;;;;;;;;;5093714;28;19958;-70
2023/11/22 13:48:27;;;;;;;;;;;;;;;;;;5093076;28;19951;-71
2023/11/22 13:50:53;;;;;;;;;;;;;;;;;;5095105;28;19916;-67
2023/11/22 13:53:21;;;;;;;;;;;;;;;;;;5093836;28;20034;-71
2023/11/22 13:55:47;;;;;;;;;;;;;;;;;;5094825;28;19919;-71
2023/11/22 13:58:14;;;;;;;;;;;;;;;;;;5095123;28;20364;-72
2023/11/22 14:00:40;;;;;;;;;;;;;;;;;;5093528;28;19974;-72
2023/11/22 14:03:06;;;;;;;;;;;;;;;;;;5094042;28;19909;-72
2023/11/22 14:05:32;;;;;;;;;;;;;;;;;;5091744;28;19908;-72
2023/11/22 14:07:58;;;;;;;;;;;;;;;;;;5090987;28;19977;-72
2023/11/22 14:10:24;;;;;;;;;;;;;;;;;;5092878;28;20334;-72
2023/11/22 14:12:50;;;;;;;;;;;;;;;;;;5092867;28;19909;-72
2023/11/22 14:15:16;;;;;;;;;;;;;;;;;;5092507;28;19916;-72
2023/11/22 14:17:42;;;;;;;;;;;;;;;;;;5093223;28;19955;-72
2023/11/22 14:20:11;;;;;;;;;;;;;;;;;;5093691;28;19908;-70
2023/11/22 14:22:37;;;;;;;;;;;;;;;;;;5091348;28;19908;-72
2023/11/22 14:25:07;;;;;;;;;;;;;;;;;;5092893;28;19912;-71
2023/11/22 14:27:33;;;;;;;;;;;;;;;;;;5093027;28;19908;-71
2023/11/22 14:30:00;;;;;;;;;;;;;;;;;;5092459;28;19931;-72
2023/11/22 14:32:25;;;;;;;;;;;;;;;;;;5092993;28;19912;-72
2023/11/22 14:34:53;;;;;;;;;;;;;;;;;;5093704;28;19998;-71
2023/11/22 14:37:19;;;;;;;;;;;;;;;;;;5092716;28;19915;-71
2023/11/22 14:39:45;;;;;;;;;;;;;;;;;;5094659;28;20314;-71
2023/11/22 14:42:12;;;;;;;;;;;;;;;;;;5094642;28;19915;-71
2023/11/22 14:44:38;;;;;;;;;;;;;;;;;;5093997;28;19981;-71
2023/11/22 14:47:06;;;;;;;;;;;;;;;;;;5094440;28;19991;-71
2023/11/22 14:49:32;;;;;;;;;;;;;;;;;;5094158;28;19922;-71
2023/11/22 14:51:58;;;;;;;;;;;;;;;;;;5093300;28;19995;-72
2023/11/22 14:54:24;;;;;;;;;;;;;;;;;;5094250;28;19950;-71
2023/11/22 14:56:50;;;;;;;;;;;;;;;;;;5093864;28;19941;-72
2023/11/22 14:59:17;;;;;;;;;;;;;;;;;;5094096;28;20018;-73
2023/11/22 15:01:46;;;;;;;;;;;;;;;;;;5094232;28;19911;-72
2023/11/22 15:04:12;;;;;;;;;;;;;;;;;;5093882;28;20361;-71
2023/11/22 15:06:38;;;;;;;;;;;;;;;;;;5094323;28;19957;-71
2023/11/22 15:09:09;;;;;;;;;;;;;;;;;;5093820;28;20261;-71
2023/11/22 15:11:38;;;;;;;;;;;;;;;;;;5075421;28;20218;-71
2023/11/22 15:14:04;;;;;;;;;;;;;;;;;;5094003;28;19908;-71
2023/11/22 15:16:31;;;;;;;;;;;;;;;;;;5093983;28;20003;-71
2023/11/22 15:18:57;;;;;;;;;;;;;;;;;;5093521;28;19908;-71
2023/11/22 15:21:22;;;;;;;;;;;;;;;;;;5093871;28;19914;-71
2023/11/22 15:23:48;;;;;;;;;;;;;;;;;;5075775;28;20368;-72
2023/11/22 15:26:14;;;;;;;;;;;;;;;;;;5093478;28;20435;-72
2023/11/22 15:28:40;;;;;;;;;;;;;;;;;;5075707;28;20364;-72
2023/11/22 15:31:07;;;;;;;;;;;;;;;;;;5093743;28;19917;-72
2023/11/22 15:33:33;;;;;;;;;;;;;;;;;;5093262;28;19908;-72
2023/11/22 15:36:00;;;;;;;;;;;;;;;;;;5093703;28;19911;-72
2023/11/22 15:38:26;;;;;;;;;;;;;;;;;;5075541;28;19908;-72
2023/11/22 15:40:52;;;;;;;;;;;;;;;;;;5075150;28;19908;-72
2023/11/22 15:43:18;;;;;;;;;;;;;;;;;;5093660;28;19993;-72
2023/11/22 15:45:44;;;;;;;;;;;;;;;;;;5093815;28;19908;-72
2023/11/22 15:48:12;;;;;;;;;;;;;;;;;;5093235;28;19941;-71
2023/11/22 15:50:38;;;;;;;;;;;;;;;;;;5093520;28;19920;-72
2023/11/22 15:53:04;;;;;;;;;;;;;;;;;;5093122;28;20002;-72
2023/11/22 15:55:30;;;;;;;;;;;;;;;;;;5093642;28;19912;-72
2023/11/22 15:57:56;;;;;;;;;;;;;;;;;;5093706;28;19908;-72
2023/11/22 16:00:22;;;;;;;;;;;;;;;;;;5093036;28;19958;-72
2023/11/22 16:02:48;;;;;;;;;;;;;;;;;;5094869;28;19920;-71
2023/11/22 16:05:14;;;;;;;;;;;;;;;;;;5097281;28;19915;-72
2023/11/22 16:07:40;;;;;;;;;;;;;;;;;;5096880;28;19953;-72
2023/11/22 16:10:08;;;;;;;;;;;;;;;;;;5097544;28;20291;-72
2023/11/22 16:12:34;;;;;;;;;;;;;;;;;;5079122;28;19915;-72
2023/11/22 16:15:00;;;;;;;;;;;;;;;;;;5078725;28;19908;-71
2023/11/22 16:17:26;;;;;;;;;;;;;;;;;;5079031;28;20045;-72
2023/11/22 16:19:52;;;;;;;;;;;;;;;;;;5078994;28;20292;-72
2023/11/22 16:22:18;;;;;;;;;;;;;;;;;;5078534;28;19912;-72
2023/11/22 16:24:45;;;;;;;;;;;;;;;;;;5096961;28;19909;-72
2023/11/22 16:27:11;;;;;;;;;;;;;;;;;;5097239;28;19915;-72
2023/11/22 16:29:37;;;;;;;;;;;;;;;;;;5096517;28;19920;-72
2023/11/22 16:32:03;;;;;;;;;;;;;;;;;;5096992;28;19908;-73
2023/11/22 16:34:29;;;;;;;;;;;;;;;;;;5070053;28;19915;-73
2023/11/22 16:36:55;;;;;;;;;;;;;;;;;;5076066;28;19912;-73
2023/11/22 16:39:22;;;;;;;;;;;;;;;;;;5076282;28;19908;-72
2023/11/22 16:41:48;;;;;;;;;;;;;;;;;;5076339;28;20003;-72